sensor_id;sensor_type;location;lat;lon;timestamp;P1;durP1;ratioP1;P2;durP2;ratioP2
77061;SDS011;65989;51.686;5.138;2023-07-24T00:00:24;3.87;;;1.90;;
77061;SDS011;65989;51.686;5.138;2023-07-24T00:02:50;4.67;;;1.90;;
77061;SDS011;65989;51.686;5.138;2023-07-24T00:05:15;4.63;;;1.70;;
77061;SDS011;65989;51.686;5.138;2023-07-24T00:07:40;3.57;;;1.80;;
77061;SDS011;65989;51.686;5.138;2023-07-24T00:10:05;4.67;;;1.80;;
77061;SDS011;65989;51.686;5.138;2023-07-24T00:12:31;4.80;;;1.97;;
77061;SDS011;65989;51.686;5.138;2023-07-24T00:14:56;3.80;;;1.70;;
77061;SDS011;65989;51.686;5.138;2023-07-24T00:17:22;4.83;;;1.93;;
77061;SDS011;65989;51.686;5.138;2023-07-24T00:19:48;4.70;;;1.97;;
77061;SDS011;65989;51.686;5.138;2023-07-24T00:22:17;7.20;;;2.33;;
77061;SDS011;65989;51.686;5.138;2023-07-24T00:24:42;5.43;;;2.20;;
77061;SDS011;65989;51.686;5.138;2023-07-24T00:27:07;7.43;;;2.23;;
77061;SDS011;65989;51.686;5.138;2023-07-24T00:29:33;4.30;;;2.20;;
77061;SDS011;65989;51.686;5.138;2023-07-24T00:31:58;4.90;;;2.37;;
77061;SDS011;65989;51.686;5.138;2023-07-24T00:34:23;4.70;;;2.80;;
77061;SDS011;65989;51.686;5.138;2023-07-24T00:36:48;5.40;;;2.67;;
77061;SDS011;65989;51.686;5.138;2023-07-24T00:39:14;5.87;;;3.00;;
77061;SDS011;65989;51.686;5.138;2023-07-24T00:41:40;5.93;;;3.10;;
77061;SDS011;65989;51.686;5.138;2023-07-24T00:44:05;5.27;;;3.20;;
77061;SDS011;65989;51.686;5.138;2023-07-24T00:46:30;6.83;;;3.43;;
77061;SDS011;65989;51.686;5.138;2023-07-24T00:48:57;5.72;;;3.40;;
77061;SDS011;65989;51.686;5.138;2023-07-24T00:51:23;6.95;;;4.15;;
77061;SDS011;65989;51.686;5.138;2023-07-24T00:53:48;7.53;;;4.20;;
77061;SDS011;65989;51.686;5.138;2023-07-24T00:56:13;8.27;;;4.37;;
77061;SDS011;65989;51.686;5.138;2023-07-24T00:58:38;7.07;;;4.60;;
77061;SDS011;65989;51.686;5.138;2023-07-24T01:01:04;9.93;;;4.97;;
77061;SDS011;65989;51.686;5.138;2023-07-24T01:03:33;7.95;;;4.95;;
77061;SDS011;65989;51.686;5.138;2023-07-24T01:05:58;7.18;;;4.68;;
77061;SDS011;65989;51.686;5.138;2023-07-24T01:08:24;10.53;;;4.90;;
77061;SDS011;65989;51.686;5.138;2023-07-24T01:16:37;9.57;;;6.10;;
77061;SDS011;65989;51.686;5.138;2023-07-24T01:19:04;12.23;;;6.50;;
77061;SDS011;65989;51.686;5.138;2023-07-24T01:21:38;10.10;;;6.93;;
77061;SDS011;65989;51.686;5.138;2023-07-24T01:24:19;10.40;;;6.45;;
77061;SDS011;65989;51.686;5.138;2023-07-24T01:26:48;9.93;;;6.68;;
77061;SDS011;65989;51.686;5.138;2023-07-24T01:29:14;10.20;;;6.67;;
77061;SDS011;65989;51.686;5.138;2023-07-24T01:31:39;11.33;;;7.23;;
77061;SDS011;65989;51.686;5.138;2023-07-24T01:34:04;11.60;;;6.83;;
77061;SDS011;65989;51.686;5.138;2023-07-24T01:36:30;9.93;;;6.67;;
77061;SDS011;65989;51.686;5.138;2023-07-24T01:38:55;11.13;;;7.03;;
77061;SDS011;65989;51.686;5.138;2023-07-24T01:41:20;11.07;;;7.10;;
77061;SDS011;65989;51.686;5.138;2023-07-24T01:43:46;11.80;;;7.47;;
77061;SDS011;65989;51.686;5.138;2023-07-24T01:46:11;10.80;;;7.47;;
77061;SDS011;65989;51.686;5.138;2023-07-24T01:48:37;11.27;;;7.23;;
77061;SDS011;65989;51.686;5.138;2023-07-24T01:51:02;9.77;;;7.20;;
77061;SDS011;65989;51.686;5.138;2023-07-24T01:53:27;12.63;;;7.60;;
77061;SDS011;65989;51.686;5.138;2023-07-24T01:55:53;10.63;;;6.70;;
77061;SDS011;65989;51.686;5.138;2023-07-24T01:58:18;10.07;;;6.57;;
77061;SDS011;65989;51.686;5.138;2023-07-24T02:00:43;9.70;;;6.83;;
77061;SDS011;65989;51.686;5.138;2023-07-24T02:03:08;11.07;;;6.57;;
77061;SDS011;65989;51.686;5.138;2023-07-24T02:05:34;9.00;;;6.37;;
77061;SDS011;65989;51.686;5.138;2023-07-24T02:07:59;8.60;;;6.40;;
77061;SDS011;65989;51.686;5.138;2023-07-24T02:10:24;9.43;;;5.60;;
77061;SDS011;65989;51.686;5.138;2023-07-24T02:12:50;11.17;;;6.40;;
77061;SDS011;65989;51.686;5.138;2023-07-24T02:15:15;8.90;;;5.97;;
77061;SDS011;65989;51.686;5.138;2023-07-24T02:17:40;9.80;;;6.17;;
77061;SDS011;65989;51.686;5.138;2023-07-24T02:20:07;10.50;;;6.28;;
77061;SDS011;65989;51.686;5.138;2023-07-24T02:22:32;9.47;;;5.87;;
77061;SDS011;65989;51.686;5.138;2023-07-24T02:24:58;9.97;;;6.13;;
77061;SDS011;65989;51.686;5.138;2023-07-24T02:27:27;8.60;;;5.40;;
77061;SDS011;65989;51.686;5.138;2023-07-24T02:29:53;11.50;;;5.93;;
77061;SDS011;65989;51.686;5.138;2023-07-24T02:32:19;8.52;;;5.53;;
77061;SDS011;65989;51.686;5.138;2023-07-24T02:34:47;8.13;;;5.25;;
77061;SDS011;65989;51.686;5.138;2023-07-24T02:37:12;10.10;;;5.40;;
77061;SDS011;65989;51.686;5.138;2023-07-24T02:39:37;8.53;;;5.33;;
77061;SDS011;65989;51.686;5.138;2023-07-24T02:42:03;9.40;;;5.10;;
77061;SDS011;65989;51.686;5.138;2023-07-24T02:44:28;10.23;;;5.17;;
77061;SDS011;65989;51.686;5.138;2023-07-24T02:46:53;9.30;;;4.70;;
77061;SDS011;65989;51.686;5.138;2023-07-24T02:49:18;12.97;;;5.10;;
77061;SDS011;65989;51.686;5.138;2023-07-24T02:51:44;9.27;;;4.80;;
77061;SDS011;65989;51.686;5.138;2023-07-24T02:54:09;7.83;;;4.60;;
77061;SDS011;65989;51.686;5.138;2023-07-24T02:56:34;10.60;;;5.20;;
77061;SDS011;65989;51.686;5.138;2023-07-24T02:59:00;7.85;;;4.70;;
77061;SDS011;65989;51.686;5.138;2023-07-24T03:01:25;8.77;;;5.07;;
77061;SDS011;65989;51.686;5.138;2023-07-24T03:03:51;8.13;;;4.80;;
77061;SDS011;65989;51.686;5.138;2023-07-24T03:06:16;8.83;;;4.63;;
77061;SDS011;65989;51.686;5.138;2023-07-24T03:08:41;8.77;;;4.90;;
77061;SDS011;65989;51.686;5.138;2023-07-24T03:11:07;8.60;;;4.90;;
77061;SDS011;65989;51.686;5.138;2023-07-24T03:13:32;12.38;;;4.93;;
77061;SDS011;65989;51.686;5.138;2023-07-24T03:15:57;8.70;;;4.67;;
77061;SDS011;65989;51.686;5.138;2023-07-24T03:18:23;12.13;;;5.07;;
77061;SDS011;65989;51.686;5.138;2023-07-24T03:20:48;8.70;;;4.73;;
77061;SDS011;65989;51.686;5.138;2023-07-24T03:23:13;8.80;;;4.83;;
77061;SDS011;65989;51.686;5.138;2023-07-24T03:25:39;8.00;;;4.77;;
77061;SDS011;65989;51.686;5.138;2023-07-24T03:28:04;8.93;;;5.33;;
77061;SDS011;65989;51.686;5.138;2023-07-24T03:30:29;8.43;;;4.97;;
77061;SDS011;65989;51.686;5.138;2023-07-24T03:32:54;10.33;;;5.70;;
77061;SDS011;65989;51.686;5.138;2023-07-24T03:35:20;8.67;;;5.03;;
77061;SDS011;65989;51.686;5.138;2023-07-24T03:37:45;11.17;;;5.60;;
77061;SDS011;65989;51.686;5.138;2023-07-24T03:40:10;8.30;;;5.20;;
77061;SDS011;65989;51.686;5.138;2023-07-24T03:42:36;9.20;;;5.30;;
77061;SDS011;65989;51.686;5.138;2023-07-24T03:45:02;11.90;;;5.37;;
77061;SDS011;65989;51.686;5.138;2023-07-24T03:47:27;8.87;;;5.60;;
77061;SDS011;65989;51.686;5.138;2023-07-24T03:49:52;11.70;;;6.17;;
77061;SDS011;65989;51.686;5.138;2023-07-24T03:52:17;10.30;;;5.70;;
77061;SDS011;65989;51.686;5.138;2023-07-24T03:54:45;11.17;;;5.53;;
77061;SDS011;65989;51.686;5.138;2023-07-24T03:57:11;10.27;;;6.10;;
77061;SDS011;65989;51.686;5.138;2023-07-24T03:59:36;12.23;;;5.93;;
77061;SDS011;65989;51.686;5.138;2023-07-24T04:02:01;10.53;;;5.97;;
77061;SDS011;65989;51.686;5.138;2023-07-24T04:04:26;10.30;;;6.10;;
77061;SDS011;65989;51.686;5.138;2023-07-24T04:06:52;9.70;;;5.83;;
77061;SDS011;65989;51.686;5.138;2023-07-24T04:09:17;10.47;;;6.60;;
77061;SDS011;65989;51.686;5.138;2023-07-24T04:11:42;10.60;;;6.93;;
77061;SDS011;65989;51.686;5.138;2023-07-24T04:14:08;10.40;;;6.87;;
77061;SDS011;65989;51.686;5.138;2023-07-24T04:16:33;11.40;;;6.87;;
77061;SDS011;65989;51.686;5.138;2023-07-24T04:18:58;12.13;;;7.07;;
77061;SDS011;65989;51.686;5.138;2023-07-24T04:21:23;12.23;;;6.90;;
77061;SDS011;65989;51.686;5.138;2023-07-24T04:23:49;11.10;;;6.93;;
77061;SDS011;65989;51.686;5.138;2023-07-24T04:26:14;11.63;;;6.60;;
77061;SDS011;65989;51.686;5.138;2023-07-24T04:28:39;11.80;;;7.07;;
77061;SDS011;65989;51.686;5.138;2023-07-24T04:31:04;11.23;;;6.90;;
77061;SDS011;65989;51.686;5.138;2023-07-24T04:33:29;13.73;;;7.10;;
77061;SDS011;65989;51.686;5.138;2023-07-24T04:35:55;14.20;;;6.90;;
77061;SDS011;65989;51.686;5.138;2023-07-24T04:38:20;13.48;;;7.10;;
77061;SDS011;65989;51.686;5.138;2023-07-24T04:40:46;11.17;;;6.57;;
77061;SDS011;65989;51.686;5.138;2023-07-24T04:43:11;13.43;;;7.30;;
77061;SDS011;65989;51.686;5.138;2023-07-24T04:45:36;12.13;;;7.20;;
77061;SDS011;65989;51.686;5.138;2023-07-24T04:48:01;13.37;;;7.33;;
77061;SDS011;65989;51.686;5.138;2023-07-24T04:50:27;12.20;;;7.37;;
77061;SDS011;65989;51.686;5.138;2023-07-24T04:52:52;10.60;;;6.47;;
77061;SDS011;65989;51.686;5.138;2023-07-24T04:55:17;13.40;;;6.60;;
77061;SDS011;65989;51.686;5.138;2023-07-24T04:57:43;11.33;;;6.70;;
77061;SDS011;65989;51.686;5.138;2023-07-24T05:00:08;10.80;;;6.70;;
77061;SDS011;65989;51.686;5.138;2023-07-24T05:02:33;11.25;;;6.70;;
77061;SDS011;65989;51.686;5.138;2023-07-24T05:04:59;10.03;;;6.70;;
77061;SDS011;65989;51.686;5.138;2023-07-24T05:07:24;14.27;;;7.17;;
77061;SDS011;65989;51.686;5.138;2023-07-24T05:09:49;14.57;;;7.50;;
77061;SDS011;65989;51.686;5.138;2023-07-24T05:12:14;12.10;;;7.50;;
77061;SDS011;65989;51.686;5.138;2023-07-24T05:14:40;13.07;;;7.90;;
77061;SDS011;65989;51.686;5.138;2023-07-24T05:17:05;13.33;;;7.67;;
77061;SDS011;65989;51.686;5.138;2023-07-24T05:19:30;12.97;;;7.93;;
77061;SDS011;65989;51.686;5.138;2023-07-24T05:21:55;15.47;;;8.40;;
77061;SDS011;65989;51.686;5.138;2023-07-24T05:24:21;13.30;;;8.73;;
77061;SDS011;65989;51.686;5.138;2023-07-24T05:26:48;14.23;;;8.75;;
77061;SDS011;65989;51.686;5.138;2023-07-24T05:29:14;16.30;;;9.33;;
77061;SDS011;65989;51.686;5.138;2023-07-24T05:31:39;16.40;;;9.93;;
77061;SDS011;65989;51.686;5.138;2023-07-24T05:34:04;14.13;;;9.33;;
77061;SDS011;65989;51.686;5.138;2023-07-24T05:36:30;16.20;;;9.55;;
77061;SDS011;65989;51.686;5.138;2023-07-24T05:38:55;14.80;;;9.77;;
77061;SDS011;65989;51.686;5.138;2023-07-24T05:41:21;14.48;;;9.52;;
77061;SDS011;65989;51.686;5.138;2023-07-24T05:43:46;13.13;;;9.00;;
77061;SDS011;65989;51.686;5.138;2023-07-24T05:46:11;16.30;;;9.50;;
77061;SDS011;65989;51.686;5.138;2023-07-24T05:48:37;19.27;;;9.53;;
77061;SDS011;65989;51.686;5.138;2023-07-24T05:51:02;17.10;;;9.93;;
77061;SDS011;65989;51.686;5.138;2023-07-24T05:53:27;14.90;;;9.50;;
77061;SDS011;65989;51.686;5.138;2023-07-24T05:55:59;16.73;;;8.93;;
77061;SDS011;65989;51.686;5.138;2023-07-24T05:58:24;14.60;;;9.43;;
77061;SDS011;65989;51.686;5.138;2023-07-24T06:00:50;16.37;;;9.60;;
77061;SDS011;65989;51.686;5.138;2023-07-24T06:03:15;17.60;;;9.70;;
77061;SDS011;65989;51.686;5.138;2023-07-24T06:05:40;15.53;;;9.43;;
77061;SDS011;65989;51.686;5.138;2023-07-24T06:08:06;16.90;;;10.27;;
77061;SDS011;65989;51.686;5.138;2023-07-24T06:10:33;16.05;;;9.50;;
77061;SDS011;65989;51.686;5.138;2023-07-24T06:12:58;17.60;;;9.40;;
77061;SDS011;65989;51.686;5.138;2023-07-24T06:15:24;15.33;;;8.93;;
77061;SDS011;65989;51.686;5.138;2023-07-24T06:17:49;15.90;;;8.57;;
77061;SDS011;65989;51.686;5.138;2023-07-24T06:20:14;17.60;;;9.67;;
77061;SDS011;65989;51.686;5.138;2023-07-24T06:22:39;15.07;;;9.50;;
77061;SDS011;65989;51.686;5.138;2023-07-24T06:25:05;15.70;;;9.90;;
77061;SDS011;65989;51.686;5.138;2023-07-24T06:27:30;13.90;;;9.00;;
77061;SDS011;65989;51.686;5.138;2023-07-24T06:29:55;15.60;;;9.33;;
77061;SDS011;65989;51.686;5.138;2023-07-24T06:32:20;19.07;;;9.93;;
77061;SDS011;65989;51.686;5.138;2023-07-24T06:34:46;14.87;;;9.23;;
77061;SDS011;65989;51.686;5.138;2023-07-24T06:37:11;18.40;;;9.77;;
77061;SDS011;65989;51.686;5.138;2023-07-24T06:39:36;16.33;;;9.73;;
77061;SDS011;65989;51.686;5.138;2023-07-24T06:42:01;17.13;;;9.67;;
77061;SDS011;65989;51.686;5.138;2023-07-24T06:44:27;17.47;;;10.70;;
77061;SDS011;65989;51.686;5.138;2023-07-24T06:46:52;19.27;;;11.07;;
77061;SDS011;65989;51.686;5.138;2023-07-24T06:49:17;15.73;;;10.53;;
77061;SDS011;65989;51.686;5.138;2023-07-24T06:51:42;20.67;;;11.40;;
77061;SDS011;65989;51.686;5.138;2023-07-24T06:54:08;19.73;;;11.00;;
77061;SDS011;65989;51.686;5.138;2023-07-24T06:56:33;20.83;;;11.50;;
77061;SDS011;65989;51.686;5.138;2023-07-24T06:58:58;15.83;;;10.40;;
77061;SDS011;65989;51.686;5.138;2023-07-24T07:01:23;17.17;;;10.93;;
77061;SDS011;65989;51.686;5.138;2023-07-24T07:03:49;16.93;;;10.80;;
77061;SDS011;65989;51.686;5.138;2023-07-24T07:06:14;16.20;;;11.20;;
77061;SDS011;65989;51.686;5.138;2023-07-24T07:08:40;20.97;;;11.03;;
77061;SDS011;65989;51.686;5.138;2023-07-24T07:11:05;17.43;;;11.40;;
77061;SDS011;65989;51.686;5.138;2023-07-24T07:13:30;15.53;;;11.50;;
77061;SDS011;65989;51.686;5.138;2023-07-24T07:15:55;16.40;;;10.60;;
77061;SDS011;65989;51.686;5.138;2023-07-24T07:18:21;18.40;;;11.00;;
77061;SDS011;65989;51.686;5.138;2023-07-24T07:20:46;14.47;;;9.90;;
77061;SDS011;65989;51.686;5.138;2023-07-24T07:23:12;16.33;;;10.70;;
77061;SDS011;65989;51.686;5.138;2023-07-24T07:25:37;14.17;;;10.00;;
77061;SDS011;65989;51.686;5.138;2023-07-24T07:28:02;16.43;;;10.23;;
77061;SDS011;65989;51.686;5.138;2023-07-24T07:30:27;17.87;;;10.13;;
77061;SDS011;65989;51.686;5.138;2023-07-24T07:32:53;14.10;;;10.53;;
77061;SDS011;65989;51.686;5.138;2023-07-24T07:35:18;14.83;;;10.20;;
77061;SDS011;65989;51.686;5.138;2023-07-24T07:37:43;14.57;;;10.00;;
77061;SDS011;65989;51.686;5.138;2023-07-24T07:40:08;14.93;;;10.50;;
77061;SDS011;65989;51.686;5.138;2023-07-24T07:42:34;14.80;;;10.20;;
77061;SDS011;65989;51.686;5.138;2023-07-24T07:44:59;13.83;;;9.87;;
77061;SDS011;65989;51.686;5.138;2023-07-24T07:47:24;13.60;;;9.77;;
77061;SDS011;65989;51.686;5.138;2023-07-24T07:49:50;12.73;;;9.57;;
77061;SDS011;65989;51.686;5.138;2023-07-24T07:52:15;14.53;;;10.00;;
77061;SDS011;65989;51.686;5.138;2023-07-24T07:54:45;14.20;;;9.73;;
77061;SDS011;65989;51.686;5.138;2023-07-24T07:57:10;14.20;;;9.65;;
77061;SDS011;65989;51.686;5.138;2023-07-24T07:59:36;12.23;;;9.00;;
77061;SDS011;65989;51.686;5.138;2023-07-24T08:02:01;14.13;;;8.93;;
77061;SDS011;65989;51.686;5.138;2023-07-24T08:04:26;13.60;;;8.30;;
77061;SDS011;65989;51.686;5.138;2023-07-24T08:06:51;11.00;;;7.70;;
77061;SDS011;65989;51.686;5.138;2023-07-24T08:09:17;11.33;;;7.30;;
77061;SDS011;65989;51.686;5.138;2023-07-24T08:11:42;13.50;;;7.85;;
77061;SDS011;65989;51.686;5.138;2023-07-24T08:14:08;11.13;;;7.23;;
77061;SDS011;65989;51.686;5.138;2023-07-24T08:16:33;12.40;;;7.20;;
77061;SDS011;65989;51.686;5.138;2023-07-24T08:18:58;12.63;;;7.07;;
77061;SDS011;65989;51.686;5.138;2023-07-24T08:21:23;11.33;;;6.77;;
77061;SDS011;65989;51.686;5.138;2023-07-24T08:23:49;13.00;;;7.40;;
77061;SDS011;65989;51.686;5.138;2023-07-24T08:26:14;11.97;;;7.47;;
77061;SDS011;65989;51.686;5.138;2023-07-24T08:28:39;10.13;;;6.37;;
77061;SDS011;65989;51.686;5.138;2023-07-24T08:31:07;10.05;;;6.45;;
77061;SDS011;65989;51.686;5.138;2023-07-24T08:33:32;10.00;;;6.13;;
77061;SDS011;65989;51.686;5.138;2023-07-24T08:36:07;12.53;;;6.17;;
77061;SDS011;65989;51.686;5.138;2023-07-24T08:38:35;9.75;;;6.32;;
77061;SDS011;65989;51.686;5.138;2023-07-24T08:41:04;12.90;;;6.70;;
77061;SDS011;65989;51.686;5.138;2023-07-24T08:43:30;9.40;;;5.63;;
77061;SDS011;65989;51.686;5.138;2023-07-24T08:45:57;12.40;;;5.82;;
77061;SDS011;65989;51.686;5.138;2023-07-24T08:48:23;8.87;;;5.27;;
77061;SDS011;65989;51.686;5.138;2023-07-24T08:50:48;9.10;;;4.95;;
77061;SDS011;65989;51.686;5.138;2023-07-24T08:53:14;10.00;;;5.65;;
77061;SDS011;65989;51.686;5.138;2023-07-24T08:55:40;9.93;;;5.23;;
77061;SDS011;65989;51.686;5.138;2023-07-24T08:58:05;9.73;;;5.60;;
77061;SDS011;65989;51.686;5.138;2023-07-24T09:00:32;14.75;;;6.35;;
77061;SDS011;65989;51.686;5.138;2023-07-24T09:02:57;9.00;;;5.93;;
77061;SDS011;65989;51.686;5.138;2023-07-24T09:05:22;10.77;;;7.05;;
77061;SDS011;65989;51.686;5.138;2023-07-24T09:07:48;11.13;;;6.90;;
77061;SDS011;65989;51.686;5.138;2023-07-24T09:10:14;11.30;;;7.10;;
77061;SDS011;65989;51.686;5.138;2023-07-24T09:12:41;10.35;;;7.63;;
77061;SDS011;65989;51.686;5.138;2023-07-24T09:15:06;10.53;;;8.00;;
77061;SDS011;65989;51.686;5.138;2023-07-24T09:17:32;11.45;;;7.90;;
77061;SDS011;65989;51.686;5.138;2023-07-24T09:19:57;10.27;;;8.07;;
77061;SDS011;65989;51.686;5.138;2023-07-24T09:22:23;11.40;;;8.17;;
77061;SDS011;65989;51.686;5.138;2023-07-24T09:24:55;11.98;;;8.48;;
77061;SDS011;65989;51.686;5.138;2023-07-24T09:27:23;15.67;;;8.43;;
77061;SDS011;65989;51.686;5.138;2023-07-24T09:29:49;11.35;;;7.97;;
77061;SDS011;65989;51.686;5.138;2023-07-24T09:32:22;10.77;;;7.30;;
77061;SDS011;65989;51.686;5.138;2023-07-24T09:34:48;11.07;;;7.80;;
77061;SDS011;65989;51.686;5.138;2023-07-24T09:37:25;11.43;;;7.32;;
77061;SDS011;65989;51.686;5.138;2023-07-24T09:39:51;10.37;;;6.67;;
77061;SDS011;65989;51.686;5.138;2023-07-24T09:42:16;9.00;;;5.78;;
77061;SDS011;65989;51.686;5.138;2023-07-24T09:44:42;10.53;;;6.40;;
77061;SDS011;65989;51.686;5.138;2023-07-24T09:47:07;9.97;;;6.47;;
77061;SDS011;65989;51.686;5.138;2023-07-24T09:49:32;9.57;;;6.70;;
77061;SDS011;65989;51.686;5.138;2023-07-24T09:51:58;10.63;;;6.13;;
77061;SDS011;65989;51.686;5.138;2023-07-24T09:54:25;9.73;;;7.20;;
77061;SDS011;65989;51.686;5.138;2023-07-24T09:56:53;9.90;;;7.00;;
77061;SDS011;65989;51.686;5.138;2023-07-24T09:59:19;8.90;;;6.57;;
77061;SDS011;65989;51.686;5.138;2023-07-24T10:01:48;9.85;;;5.88;;
77061;SDS011;65989;51.686;5.138;2023-07-24T10:04:14;11.60;;;5.93;;
77061;SDS011;65989;51.686;5.138;2023-07-24T10:06:40;9.02;;;5.63;;
77061;SDS011;65989;51.686;5.138;2023-07-24T10:09:06;8.88;;;6.00;;
77061;SDS011;65989;51.686;5.138;2023-07-24T10:11:32;8.77;;;5.10;;
77061;SDS011;65989;51.686;5.138;2023-07-24T10:13:58;9.07;;;5.50;;
77061;SDS011;65989;51.686;5.138;2023-07-24T10:16:23;11.00;;;5.20;;
77061;SDS011;65989;51.686;5.138;2023-07-24T10:18:48;7.37;;;4.70;;
77061;SDS011;65989;51.686;5.138;2023-07-24T10:21:14;7.87;;;4.70;;
77061;SDS011;65989;51.686;5.138;2023-07-24T10:23:45;8.07;;;4.70;;
77061;SDS011;65989;51.686;5.138;2023-07-24T10:26:14;9.55;;;4.72;;
77061;SDS011;65989;51.686;5.138;2023-07-24T10:28:41;7.15;;;3.90;;
77061;SDS011;65989;51.686;5.138;2023-07-24T10:31:27;6.00;;;3.77;;
77061;SDS011;65989;51.686;5.138;2023-07-24T10:33:52;8.68;;;4.38;;
77061;SDS011;65989;51.686;5.138;2023-07-24T10:36:18;8.00;;;3.87;;
77061;SDS011;65989;51.686;5.138;2023-07-24T10:38:45;7.88;;;4.25;;
77061;SDS011;65989;51.686;5.138;2023-07-24T10:41:11;7.03;;;3.80;;
77061;SDS011;65989;51.686;5.138;2023-07-24T10:46:11;8.95;;;4.35;;
77061;SDS011;65989;51.686;5.138;2023-07-24T10:48:36;7.23;;;4.40;;
77061;SDS011;65989;51.686;5.138;2023-07-24T10:51:08;9.33;;;4.10;;
77061;SDS011;65989;51.686;5.138;2023-07-24T10:53:34;6.70;;;3.83;;
77061;SDS011;65989;51.686;5.138;2023-07-24T10:56:00;7.72;;;4.05;;
77061;SDS011;65989;51.686;5.138;2023-07-24T10:58:25;7.73;;;4.20;;
77061;SDS011;65989;51.686;5.138;2023-07-24T11:00:51;9.77;;;4.18;;
77061;SDS011;65989;51.686;5.138;2023-07-24T11:03:17;7.43;;;4.00;;
77061;SDS011;65989;51.686;5.138;2023-07-24T11:05:43;6.67;;;3.90;;
77061;SDS011;65989;51.686;5.138;2023-07-24T11:08:09;7.15;;;3.92;;
77061;SDS011;65989;51.686;5.138;2023-07-24T11:10:39;9.27;;;4.40;;
77061;SDS011;65989;51.686;5.138;2023-07-24T11:13:09;8.63;;;3.83;;
77061;SDS011;65989;51.686;5.138;2023-07-24T11:15:35;8.65;;;3.78;;
77061;SDS011;65989;51.686;5.138;2023-07-24T11:18:00;7.43;;;3.70;;
77061;SDS011;65989;51.686;5.138;2023-07-24T11:20:29;8.00;;;3.92;;
77061;SDS011;65989;51.686;5.138;2023-07-24T11:22:57;9.93;;;4.05;;
77061;SDS011;65989;51.686;5.138;2023-07-24T11:25:22;8.65;;;3.90;;
77061;SDS011;65989;51.686;5.138;2023-07-24T11:27:47;8.60;;;3.87;;
77061;SDS011;65989;51.686;5.138;2023-07-24T11:30:18;9.03;;;4.70;;
77061;SDS011;65989;51.686;5.138;2023-07-24T11:32:44;8.88;;;4.00;;
77061;SDS011;65989;51.686;5.138;2023-07-24T11:35:09;8.80;;;4.30;;
77061;SDS011;65989;51.686;5.138;2023-07-24T11:37:35;9.10;;;4.45;;
77061;SDS011;65989;51.686;5.138;2023-07-24T11:40:01;8.97;;;4.37;;
77061;SDS011;65989;51.686;5.138;2023-07-24T11:42:35;7.55;;;4.32;;
77061;SDS011;65989;51.686;5.138;2023-07-24T11:45:01;9.40;;;3.90;;
77061;SDS011;65989;51.686;5.138;2023-07-24T11:47:27;8.13;;;4.00;;
77061;SDS011;65989;51.686;5.138;2023-07-24T11:49:58;7.77;;;4.03;;
77061;SDS011;65989;51.686;5.138;2023-07-24T11:52:23;9.73;;;4.35;;
77061;SDS011;65989;51.686;5.138;2023-07-24T11:54:55;7.93;;;4.23;;
77061;SDS011;65989;51.686;5.138;2023-07-24T11:57:22;8.85;;;4.18;;
77061;SDS011;65989;51.686;5.138;2023-07-24T11:59:48;9.47;;;4.63;;
77061;SDS011;65989;51.686;5.138;2023-07-24T12:02:13;8.47;;;4.80;;
77061;SDS011;65989;51.686;5.138;2023-07-24T12:04:38;10.50;;;4.93;;
77061;SDS011;65989;51.686;5.138;2023-07-24T12:07:07;10.73;;;4.53;;
77061;SDS011;65989;51.686;5.138;2023-07-24T12:09:32;8.73;;;4.53;;
77061;SDS011;65989;51.686;5.138;2023-07-24T12:11:58;13.33;;;4.73;;
77061;SDS011;65989;51.686;5.138;2023-07-24T12:14:23;8.52;;;4.32;;
77061;SDS011;65989;51.686;5.138;2023-07-24T12:16:48;7.23;;;4.20;;
77061;SDS011;65989;51.686;5.138;2023-07-24T12:19:14;11.87;;;4.47;;
77061;SDS011;65989;51.686;5.138;2023-07-24T12:21:39;7.80;;;4.23;;
77061;SDS011;65989;51.686;5.138;2023-07-24T12:24:04;9.87;;;4.80;;
77061;SDS011;65989;51.686;5.138;2023-07-24T12:26:30;9.93;;;4.57;;
77061;SDS011;65989;51.686;5.138;2023-07-24T12:28:55;9.30;;;3.93;;
77061;SDS011;65989;51.686;5.138;2023-07-24T12:31:20;8.80;;;4.13;;
77061;SDS011;65989;51.686;5.138;2023-07-24T12:33:46;8.97;;;4.63;;
77061;SDS011;65989;51.686;5.138;2023-07-24T12:36:11;9.50;;;4.40;;
77061;SDS011;65989;51.686;5.138;2023-07-24T12:38:36;10.50;;;5.00;;
77061;SDS011;65989;51.686;5.138;2023-07-24T12:41:01;10.07;;;4.70;;
77061;SDS011;65989;51.686;5.138;2023-07-24T12:43:27;8.53;;;4.27;;
77061;SDS011;65989;51.686;5.138;2023-07-24T12:45:52;9.67;;;4.73;;
77061;SDS011;65989;51.686;5.138;2023-07-24T12:48:17;9.00;;;4.43;;
77061;SDS011;65989;51.686;5.138;2023-07-24T12:50:42;10.32;;;4.63;;
77061;SDS011;65989;51.686;5.138;2023-07-24T12:53:10;12.93;;;4.27;;
77061;SDS011;65989;51.686;5.138;2023-07-24T12:55:36;7.85;;;4.10;;
77061;SDS011;65989;51.686;5.138;2023-07-24T12:58:01;8.27;;;4.47;;
77061;SDS011;65989;51.686;5.138;2023-07-24T13:00:28;8.70;;;3.88;;
77061;SDS011;65989;51.686;5.138;2023-07-24T13:02:54;7.78;;;3.70;;
77061;SDS011;65989;51.686;5.138;2023-07-24T13:05:20;8.27;;;3.97;;
77061;SDS011;65989;51.686;5.138;2023-07-24T13:07:48;7.57;;;4.03;;
77061;SDS011;65989;51.686;5.138;2023-07-24T13:10:13;8.40;;;4.45;;
77061;SDS011;65989;51.686;5.138;2023-07-24T13:12:39;9.40;;;4.60;;
77061;SDS011;65989;51.686;5.138;2023-07-24T13:15:07;9.47;;;4.37;;
77061;SDS011;65989;51.686;5.138;2023-07-24T13:17:32;8.30;;;4.63;;
77061;SDS011;65989;51.686;5.138;2023-07-24T13:19:57;10.27;;;4.47;;
77061;SDS011;65989;51.686;5.138;2023-07-24T13:22:23;11.47;;;4.73;;
77061;SDS011;65989;51.686;5.138;2023-07-24T13:24:48;10.13;;;4.73;;
77061;SDS011;65989;51.686;5.138;2023-07-24T13:27:13;11.23;;;4.50;;
77061;SDS011;65989;51.686;5.138;2023-07-24T13:29:38;12.67;;;4.80;;
77061;SDS011;65989;51.686;5.138;2023-07-24T13:32:04;14.03;;;4.93;;
77061;SDS011;65989;51.686;5.138;2023-07-24T13:34:29;10.90;;;4.37;;
77061;SDS011;65989;51.686;5.138;2023-07-24T13:36:57;14.88;;;4.78;;
77061;SDS011;65989;51.686;5.138;2023-07-24T13:39:22;8.73;;;4.07;;
77061;SDS011;65989;51.686;5.138;2023-07-24T13:41:48;10.17;;;4.13;;
77061;SDS011;65989;51.686;5.138;2023-07-24T13:44:13;10.73;;;4.70;;
77061;SDS011;65989;51.686;5.138;2023-07-24T13:46:38;9.90;;;4.17;;
77061;SDS011;65989;51.686;5.138;2023-07-24T13:49:04;10.48;;;4.30;;
77061;SDS011;65989;51.686;5.138;2023-07-24T13:51:29;9.60;;;4.07;;
77061;SDS011;65989;51.686;5.138;2023-07-24T13:53:54;10.07;;;3.60;;
77061;SDS011;65989;51.686;5.138;2023-07-24T13:56:19;8.27;;;3.17;;
77061;SDS011;65989;51.686;5.138;2023-07-24T13:58:47;10.35;;;3.90;;
77061;SDS011;65989;51.686;5.138;2023-07-24T14:01:12;8.13;;;3.00;;
77061;SDS011;65989;51.686;5.138;2023-07-24T14:03:38;9.43;;;3.83;;
77061;SDS011;65989;51.686;5.138;2023-07-24T14:06:03;8.33;;;3.83;;
77061;SDS011;65989;51.686;5.138;2023-07-24T14:08:31;9.65;;;3.53;;
77061;SDS011;65989;51.686;5.138;2023-07-24T14:10:56;9.40;;;3.83;;
77061;SDS011;65989;51.686;5.138;2023-07-24T14:13:22;9.17;;;4.03;;
77061;SDS011;65989;51.686;5.138;2023-07-24T14:15:47;9.37;;;4.10;;
77061;SDS011;65989;51.686;5.138;2023-07-24T14:18:12;8.77;;;3.87;;
77061;SDS011;65989;51.686;5.138;2023-07-24T14:20:37;7.77;;;3.90;;
77061;SDS011;65989;51.686;5.138;2023-07-24T14:23:05;8.43;;;3.58;;
77061;SDS011;65989;51.686;5.138;2023-07-24T14:25:30;8.27;;;3.30;;
77061;SDS011;65989;51.686;5.138;2023-07-24T14:27:55;9.80;;;3.70;;
77061;SDS011;65989;51.686;5.138;2023-07-24T14:30:23;7.40;;;3.40;;
77061;SDS011;65989;51.686;5.138;2023-07-24T14:32:49;9.53;;;3.90;;
77061;SDS011;65989;51.686;5.138;2023-07-24T14:35:15;8.13;;;3.30;;
77061;SDS011;65989;51.686;5.138;2023-07-24T14:37:40;9.10;;;3.87;;
77061;SDS011;65989;51.686;5.138;2023-07-24T14:40:06;9.10;;;3.90;;